This is the latest recevied weather packets stored in our database for station/object IW4DZV-13. If no packets are shown the sender has not sent any weather packets the latest 10 day(s).
| Time | Temp. | Humidity | Pressure | Rain* | Wind** | Luminosity | Snow |
|---|---|---|---|---|---|---|---|
| 1777851020 | 15.56° C | 62% | 1015.8 hPa | 0 mm | - | 0 W/m² | - |
| 1777850116 | 15.56° C | 62% | 1015.9 hPa | 0 mm | - | 0 W/m² | - |
| 1777849211 | 16.11° C | 63% | 1016 hPa | 0 mm | - | 0 W/m² | - |
| 1777848309 | 16.11° C | 63% | 1015.8 hPa | 0 mm | - | 0 W/m² | - |
| 1777847407 | 16.67° C | 63% | 1016 hPa | 0 mm | - | 0 W/m² | - |
| 1777846506 | 16.67° C | 63% | 1016 hPa | 0 mm | - | 0 W/m² | - |
| 1777845603 | 17.22° C | 63% | 1015.8 hPa | 0 mm | - | 0 W/m² | - |
| 1777844703 | 17.22° C | 64% | 1015.8 hPa | 0 mm | - | 0 W/m² | - |
| 1777843807 | 17.22° C | 65% | 1015.7 hPa | 0 mm | - | 0 W/m² | - |
| 1777842902 | 17.22° C | 67% | 1015.7 hPa | 0 mm | - | 0 W/m² | - |
| 1777842001 | 17.22° C | 67% | 1015.7 hPa | 0 mm | - | 0 W/m² | - |
| 1777841102 | 17.78° C | 66% | 1015.8 hPa | 0 mm | - | 0 W/m² | - |
| 1777840275 | 17.78° C | 66% | 1015.8 hPa | 0 mm | - | 0 W/m² | - |
| 1777839360 | 18.33° C | 65% | 1015.8 hPa | 0 mm | - | 0 W/m² | - |
| 1777838466 | 18.33° C | 64% | 1015.9 hPa | 0 mm | - | 0 W/m² | - |
| 1777837559 | 18.89° C | 63% | 1015.7 hPa | 0 mm | - | 0 W/m² | - |
| 1777836659 | 18.89° C | 63% | 1015.5 hPa | 0 mm | - | 0 W/m² | - |
| 1777835759 | 19.44° C | 62% | 1015.5 hPa | 0 mm | - | 0 W/m² | - |
| 1777834871 | 20° C | 61% | 1015.3 hPa | 0 mm | - | 0 W/m² | - |
| 1777833960 | 20° C | 60% | 1015.2 hPa | 0 mm | - | 0 W/m² | - |
| 1777833059 | 20.56° C | 59% | 1015.2 hPa | 0 mm | - | 0 W/m² | - |
| 1777832162 | 21.11° C | 57% | 1015.1 hPa | 0 mm | - | 5 W/m² | - |
| 1777831256 | 21.67° C | 56% | 1015 hPa | 0 mm | - | 11 W/m² | - |
| 1777830356 | 22.22° C | 54% | 1015 hPa | 0 mm | - | 19 W/m² | - |
| 1777829455 | 22.78° C | 51% | 1014.9 hPa | 0 mm | - | 28 W/m² | - |
* Rain since midnight (hover to see other rain measurements)
** Current wind speed in m/s (hover to see current wind gust speed)